Time;durP1;ratioP1;P1;durP2;ratioP2;P2;SDS_P1;SDS_P2;PMS_P1;PMS_P2;Temp;Humidity;BMP_temperature;BMP_pressure;BME280_temperature;BME280_humidity;BME280_pressure;Samples;Min_cycle;Max_cycle;Signal;HPM_P1;HPM_P2
2020/12/14 00:01:21;;;;;;;54.87;25.07;;;5.90;99.90;;;;;;4985056;28;20074;-69
2020/12/14 00:03:54;;;;;;;54.70;26.73;;;5.80;99.90;;;;;;4988421;28;20059;-69
2020/12/14 00:06:21;;;;;;;52.37;25.00;;;5.80;99.90;;;;;;4989197;28;20057;-68
2020/12/14 00:08:47;;;;;;;49.47;24.23;;;5.80;99.90;;;;;;4987950;28;20050;-70
2020/12/14 00:11:14;;;;;;;54.30;25.10;;;5.90;99.90;;;;;;4989684;28;20046;-69
2020/12/14 00:13:41;;;;;;;51.88;24.52;;;5.80;99.90;;;;;;4987510;28;20054;-69
2020/12/14 00:16:09;;;;;;;60.27;27.83;;;5.90;99.90;;;;;;4986172;28;20062;-68
2020/12/14 00:18:35;;;;;;;54.40;24.88;;;5.90;99.90;;;;;;4985588;28;20053;-69
2020/12/14 00:21:03;;;;;;;51.13;23.80;;;5.80;99.90;;;;;;4984161;28;20050;-70
2020/12/14 00:23:29;;;;;;;50.63;24.70;;;5.80;99.90;;;;;;4985810;28;20061;-69
2020/12/14 00:25:56;;;;;;;52.63;24.30;;;5.80;99.90;;;;;;4985351;28;20450;-70
2020/12/14 00:28:23;;;;;;;42.50;22.73;;;5.80;99.90;;;;;;4984716;28;20046;-68
2020/12/14 00:30:50;;;;;;;40.97;21.73;;;5.90;99.90;;;;;;4982192;28;20108;-69
2020/12/14 00:33:17;;;;;;;43.58;22.13;;;5.90;99.90;;;;;;4979813;28;20112;-68
2020/12/14 00:35:43;;;;;;;41.08;20.73;;;5.90;99.90;;;;;;4981038;28;20061;-69
2020/12/14 00:38:11;;;;;;;47.67;22.98;;;5.90;99.90;;;;;;4979434;28;20050;-71
2020/12/14 00:40:37;;;;;;;56.15;23.83;;;5.80;99.90;;;;;;4981457;28;20573;-71
2020/12/14 00:43:04;;;;;;;49.88;23.67;;;5.70;99.90;;;;;;4987337;28;20054;-69
2020/12/14 00:45:31;;;;;;;56.13;24.90;;;5.70;99.90;;;;;;4990779;28;20066;-70
2020/12/14 00:47:57;;;;;;;53.07;24.37;;;5.60;99.90;;;;;;4992568;28;20057;-68
2020/12/14 00:50:24;;;;;;;53.83;24.43;;;5.60;99.90;;;;;;4991201;28;20054;-68
2020/12/14 00:52:50;;;;;;;55.50;24.67;;;5.50;99.90;;;;;;4992309;28;20403;-68
2020/12/14 00:55:18;;;;;;;47.53;23.23;;;5.50;99.90;;;;;;4992519;28;20058;-70
2020/12/14 00:57:44;;;;;;;58.60;25.40;;;5.50;99.90;;;;;;4991008;28;20053;-68
2020/12/14 01:00:11;;;;;;;51.30;23.73;;;5.30;99.90;;;;;;4991712;28;20558;-71
2020/12/14 01:02:37;;;;;;;54.07;24.80;;;5.30;99.90;;;;;;4991053;28;20057;-69
2020/12/14 01:05:04;;;;;;;59.70;24.10;;;5.30;99.90;;;;;;4992269;28;20105;-69
2020/12/14 01:07:31;;;;;;;56.97;25.60;;;5.30;99.90;;;;;;4991079;28;20072;-69
2020/12/14 01:09:57;;;;;;;53.27;24.23;;;5.30;99.90;;;;;;4992218;28;20058;-70
2020/12/14 01:12:25;;;;;;;53.90;24.07;;;5.20;99.90;;;;;;4991470;28;20038;-69
2020/12/14 01:14:51;;;;;;;58.93;25.03;;;5.20;99.90;;;;;;4990858;28;20050;-70
2020/12/14 01:17:18;;;;;;;57.40;24.80;;;5.20;99.90;;;;;;4991954;28;20073;-69
2020/12/14 01:19:45;;;;;;;57.97;25.80;;;5.20;99.90;;;;;;4990614;28;20061;-69
2020/12/14 01:22:11;;;;;;;49.67;23.47;;;5.20;99.90;;;;;;4987305;28;20066;-69
2020/12/14 01:24:38;;;;;;;50.10;24.13;;;5.20;99.90;;;;;;4984602;28;20457;-71
2020/12/14 01:27:04;;;;;;;54.37;24.83;;;5.10;99.90;;;;;;4986587;28;20057;-69
2020/12/14 01:29:32;;;;;;;53.53;23.33;;;5.10;99.90;;;;;;4988850;28;20486;-68
2020/12/14 01:32:01;;;;;;;49.77;24.00;;;5.20;99.90;;;;;;4990022;28;20046;-69
2020/12/14 01:34:28;;;;;;;52.40;23.93;;;5.10;99.90;;;;;;4983952;28;20050;-69
2020/12/14 01:36:55;;;;;;;50.47;23.17;;;5.10;99.90;;;;;;4990742;28;20560;-68
2020/12/14 01:39:22;;;;;;;51.07;23.60;;;5.10;99.90;;;;;;4991279;28;20116;-68
2020/12/14 01:41:48;;;;;;;48.57;22.57;;;5.10;99.90;;;;;;4989915;28;20085;-69
2020/12/14 01:44:15;;;;;;;56.43;23.40;;;5.10;99.90;;;;;;4990027;28;20125;-68
2020/12/14 01:46:44;;;;;;;54.77;23.57;;;5.20;99.90;;;;;;4990959;28;20046;-69
2020/12/14 01:49:12;;;;;;;44.27;21.17;;;5.20;99.90;;;;;;4989676;28;20046;-68
2020/12/14 01:51:39;;;;;;;49.10;22.33;;;5.10;99.90;;;;;;4990397;28;20049;-69
2020/12/14 01:54:14;;;;;;;47.20;22.03;;;5.00;99.90;;;;;;4989927;28;20515;-69
2020/12/14 01:56:41;;;;;;;41.80;21.03;;;4.90;99.90;;;;;;4991020;28;20058;-68
2020/12/14 01:59:08;;;;;;;42.50;21.20;;;4.90;99.90;;;;;;4991132;28;20503;-68
2020/12/14 02:01:38;;;;;;;49.40;21.57;;;4.80;99.90;;;;;;4989855;28;20054;-68
2020/12/14 02:04:06;;;;;;;44.13;20.47;;;4.80;99.90;;;;;;4990920;28;20046;-70
2020/12/14 02:06:32;;;;;;;46.23;21.77;;;4.90;99.90;;;;;;4988716;28;20069;-69
2020/12/14 02:09:02;;;;;;;51.10;23.07;;;4.80;99.90;;;;;;4990441;28;20487;-69
2020/12/14 02:11:29;;;;;;;47.80;22.23;;;4.70;99.90;;;;;;4989282;28;20046;-71
2020/12/14 02:13:55;;;;;;;51.07;24.33;;;4.70;99.90;;;;;;4985977;28;20054;-69
2020/12/14 02:16:22;;;;;;;53.87;23.70;;;4.70;99.90;;;;;;4987898;28;20051;-68
2020/12/14 02:18:50;;;;;;;58.87;24.07;;;4.70;99.90;;;;;;4989425;28;20046;-71
2020/12/14 02:21:18;;;;;;;53.23;25.27;;;4.60;99.90;;;;;;4990360;28;20046;-68
2020/12/14 02:23:45;;;;;;;57.20;24.97;;;4.60;99.90;;;;;;4979423;28;20046;-69
2020/12/14 02:26:12;;;;;;;56.00;24.20;;;4.50;99.90;;;;;;4990756;28;20046;-69
2020/12/14 02:28:39;;;;;;;67.00;26.87;;;4.50;99.90;;;;;;4989936;28;20057;-69
2020/12/14 02:31:06;;;;;;;66.63;26.50;;;4.50;99.90;;;;;;4990647;28;20064;-68
2020/12/14 02:33:33;;;;;;;55.67;24.60;;;4.50;99.90;;;;;;4988723;28;20122;-68
2020/12/14 02:35:59;;;;;;;67.93;26.97;;;4.40;99.90;;;;;;4990022;28;20050;-68
2020/12/14 02:38:26;;;;;;;60.73;26.53;;;4.40;99.90;;;;;;4990404;28;20109;-68
2020/12/14 02:40:53;;;;;;;67.60;25.70;;;4.40;99.90;;;;;;4989303;28;20053;-68
2020/12/14 02:43:21;;;;;;;57.93;25.53;;;4.40;99.90;;;;;;4990262;28;20137;-69
2020/12/14 02:45:47;;;;;;;59.53;25.17;;;4.40;99.90;;;;;;4989901;28;20054;-69
2020/12/14 02:48:14;;;;;;;59.37;25.40;;;4.40;99.90;;;;;;4990216;28;20053;-68
2020/12/14 02:50:41;;;;;;;58.70;24.50;;;4.40;99.90;;;;;;4989884;28;20046;-68
2020/12/14 02:53:08;;;;;;;60.37;25.50;;;4.40;99.90;;;;;;4989069;28;20054;-70
2020/12/14 02:55:34;;;;;;;56.90;24.73;;;4.40;99.90;;;;;;4990220;28;20078;-68
2020/12/14 02:58:01;;;;;;;58.47;24.40;;;4.40;99.90;;;;;;4989303;28;20478;-68
2020/12/14 03:00:29;;;;;;;56.23;22.80;;;4.40;99.90;;;;;;4991406;28;20533;-69
2020/12/14 03:02:55;;;;;;;52.97;22.63;;;4.30;99.90;;;;;;4993326;28;20105;-69
2020/12/14 03:05:22;;;;;;;57.67;23.13;;;4.40;99.90;;;;;;4993778;28;20058;-69
2020/12/14 03:07:48;;;;;;;46.27;21.67;;;4.40;99.90;;;;;;4993972;28;20050;-68
2020/12/14 03:10:15;;;;;;;53.07;22.63;;;4.40;99.90;;;;;;4992521;28;20053;-68
2020/12/14 03:12:43;;;;;;;49.17;21.90;;;4.40;99.90;;;;;;4993743;28;20112;-69
2020/12/14 03:15:10;;;;;;;47.50;21.80;;;4.40;99.90;;;;;;4993484;28;20062;-69
2020/12/14 03:17:37;;;;;;;52.57;22.80;;;4.40;99.90;;;;;;4993778;28;20064;-68
2020/12/14 03:20:04;;;;;;;47.90;22.23;;;4.40;99.90;;;;;;4993217;28;20051;-69
2020/12/14 03:22:31;;;;;;;44.50;21.57;;;4.40;99.90;;;;;;4993923;28;20050;-68
2020/12/14 03:24:58;;;;;;;43.03;20.80;;;4.40;99.90;;;;;;4993811;28;20054;-68
2020/12/14 03:27:24;;;;;;;43.27;19.43;;;4.40;99.90;;;;;;4992894;28;20054;-70
2020/12/14 03:29:51;;;;;;;42.50;19.70;;;4.40;99.90;;;;;;4994039;28;20405;-68
2020/12/14 03:32:18;;;;;;;45.40;19.80;;;4.40;99.90;;;;;;4991927;28;20498;-68
2020/12/14 03:34:45;;;;;;;43.73;20.33;;;4.30;99.90;;;;;;4993832;28;20050;-70
2020/12/14 03:37:12;;;;;;;45.43;22.13;;;4.40;99.90;;;;;;4992765;28;20059;-68
2020/12/14 03:39:39;;;;;;;43.03;19.97;;;4.30;99.90;;;;;;4991430;28;20058;-69
2020/12/14 03:42:05;;;;;;;39.90;19.53;;;4.20;99.90;;;;;;4989811;28;20086;-68
2020/12/14 03:44:32;;;;;;;46.47;19.67;;;4.20;99.90;;;;;;4992967;28;20057;-68
2020/12/14 03:46:59;;;;;;;48.87;20.13;;;4.20;99.90;;;;;;4993439;28;20429;-70
2020/12/14 03:49:25;;;;;;;50.03;21.33;;;4.20;99.90;;;;;;4992357;28;20053;-69
2020/12/14 03:51:53;;;;;;;44.13;19.80;;;4.20;99.90;;;;;;4993239;28;20057;-68
2020/12/14 03:54:21;;;;;;;43.80;20.40;;;4.20;99.90;;;;;;4992900;28;20499;-69
2020/12/14 03:56:48;;;;;;;43.53;19.40;;;4.20;99.90;;;;;;4992689;28;20069;-68
2020/12/14 03:59:15;;;;;;;42.37;20.20;;;4.20;99.90;;;;;;4993523;28;20054;-68
2020/12/14 04:01:41;;;;;;;44.17;20.37;;;4.20;99.90;;;;;;4992167;28;20805;-69
2020/12/14 04:04:08;;;;;;;46.43;19.73;;;4.20;99.90;;;;;;4993425;28;20062;-68
2020/12/14 04:06:34;;;;;;;45.10;19.70;;;4.20;99.90;;;;;;4992507;28;20391;-68
2020/12/14 04:09:02;;;;;;;43.87;19.60;;;4.20;99.90;;;;;;5006070;28;20080;-70
2020/12/14 04:11:29;;;;;;;41.03;19.23;;;4.10;99.90;;;;;;5014801;28;20034;-70
2020/12/14 04:13:55;;;;;;;47.93;19.30;;;4.10;99.90;;;;;;5010307;28;20042;-70
2020/12/14 04:16:22;;;;;;;50.10;19.70;;;4.10;99.90;;;;;;4997524;28;20047;-70
2020/12/14 04:18:49;;;;;;;45.50;19.40;;;4.10;99.90;;;;;;4997465;28;20065;-69
2020/12/14 04:21:18;;;;;;;42.43;18.87;;;4.10;99.90;;;;;;4997145;28;20043;-70
2020/12/14 04:23:44;;;;;;;40.63;19.10;;;4.00;99.90;;;;;;4997069;28;20043;-70
2020/12/14 04:26:14;;;;;;;49.37;20.77;;;4.10;99.90;;;;;;4994562;28;20055;-68
2020/12/14 04:28:41;;;;;;;44.53;19.70;;;4.00;99.90;;;;;;4974914;28;20059;-68
2020/12/14 04:31:08;;;;;;;38.80;17.27;;;4.00;99.90;;;;;;4976195;28;20054;-69
2020/12/14 04:33:35;;;;;;;41.47;17.73;;;4.10;99.90;;;;;;4978134;28;20546;-68
2020/12/14 04:36:01;;;;;;;39.40;17.37;;;4.00;99.90;;;;;;4972955;28;20050;-68
2020/12/14 04:38:28;;;;;;;37.87;16.93;;;4.00;99.90;;;;;;4973909;28;20070;-68
2020/12/14 04:40:55;;;;;;;35.93;17.20;;;4.00;99.90;;;;;;4972576;28;20058;-68
2020/12/14 04:43:23;;;;;;;39.60;18.33;;;4.00;99.90;;;;;;4973093;28;20076;-68
2020/12/14 04:45:50;;;;;;;38.63;17.17;;;4.00;99.90;;;;;;4973335;28;20051;-68
2020/12/14 04:48:17;;;;;;;37.20;16.93;;;3.90;99.90;;;;;;4971931;28;20427;-68
2020/12/14 04:50:44;;;;;;;39.67;16.67;;;3.90;99.90;;;;;;4972719;28;20055;-68
2020/12/14 04:53:11;;;;;;;36.47;16.73;;;4.00;99.90;;;;;;4971903;28;20050;-68
2020/12/14 04:55:38;;;;;;;33.07;15.73;;;3.90;99.90;;;;;;4972822;28;20404;-68
2020/12/14 04:58:06;;;;;;;38.70;17.23;;;3.90;99.90;;;;;;4972958;28;20077;-68
2020/12/14 05:00:34;;;;;;;39.90;18.30;;;3.90;99.90;;;;;;4971761;28;20054;-68
2020/12/14 05:03:01;;;;;;;40.93;18.87;;;3.90;99.90;;;;;;4972834;28;20058;-68
2020/12/14 05:05:28;;;;;;;39.33;18.57;;;3.80;99.90;;;;;;4972170;28;20066;-68
2020/12/14 05:07:55;;;;;;;45.60;18.53;;;3.80;99.90;;;;;;4972926;28;20507;-69
2020/12/14 05:10:23;;;;;;;39.80;19.00;;;3.70;99.90;;;;;;4970976;28;20879;-69
2020/12/14 05:12:50;;;;;;;45.43;19.83;;;3.80;99.90;;;;;;4972492;28;20443;-68
2020/12/14 05:15:21;;;;;;;44.23;18.90;;;3.90;99.90;;;;;;4988198;28;20062;-69
2020/12/14 05:17:49;;;;;;;44.67;18.53;;;3.90;99.90;;;;;;4991192;28;20061;-68
2020/12/14 05:20:17;;;;;;;40.60;18.13;;;3.90;99.90;;;;;;4991447;28;20054;-68
2020/12/14 05:22:57;;;;;;;44.80;19.17;;;3.90;99.90;;;;;;4990318;28;20057;-68
2020/12/14 05:25:24;;;;;;;43.03;18.60;;;3.90;99.90;;;;;;4991720;28;20050;-68
2020/12/14 05:28:14;;;;;;;42.83;19.23;;;3.90;99.90;;;;;;4990530;28;20050;-68
2020/12/14 05:30:48;;;;;;;42.00;19.13;;;4.00;99.90;;;;;;4990931;28;20383;-68
2020/12/14 05:33:19;;;;;;;43.93;19.73;;;4.00;99.90;;;;;;4992037;28;20073;-70
2020/12/14 05:35:46;;;;;;;41.90;18.57;;;4.10;99.90;;;;;;4990946;28;20057;-69
2020/12/14 05:38:19;;;;;;;38.77;18.63;;;4.10;99.90;;;;;;4991222;28;20062;-70
2020/12/14 05:40:47;;;;;;;43.80;19.37;;;4.10;99.90;;;;;;4990718;28;20046;-68
2020/12/14 05:43:16;;;;;;;41.87;19.43;;;4.10;99.90;;;;;;4991515;28;20046;-68
2020/12/14 05:45:43;;;;;;;38.37;18.63;;;4.20;99.90;;;;;;4989723;28;20054;-68
2020/12/14 05:48:30;;;;;;;38.47;17.73;;;4.20;99.90;;;;;;4991175;28;20499;-69
2020/12/14 05:50:59;;;;;;;35.30;18.02;;;4.10;99.90;;;;;;4990178;28;20736;-68
2020/12/14 05:53:37;;;;;;;35.40;17.67;;;4.10;99.90;;;;;;4990347;28;20058;-68
2020/12/14 05:56:05;;;;;;;35.33;16.97;;;4.10;99.90;;;;;;4991129;28;20054;-70
2020/12/14 05:58:33;;;;;;;35.97;17.30;;;4.00;99.90;;;;;;4990230;28;20054;-69
2020/12/14 06:01:01;;;;;;;36.80;16.90;;;4.00;99.90;;;;;;4991112;28;20058;-70
2020/12/14 06:03:29;;;;;;;37.47;17.07;;;3.90;99.90;;;;;;4990467;28;20435;-71
2020/12/14 06:05:59;;;;;;;34.27;16.40;;;3.90;99.90;;;;;;4991442;28;20061;-68
2020/12/14 06:09:07;;;;;;;42.63;19.77;;;4.00;99.90;;;;;;4990468;28;20090;-70
2020/12/14 06:11:37;;;;;;;37.40;17.03;;;4.00;99.90;;;;;;4991018;28;20057;-68
2020/12/14 06:14:05;;;;;;;39.70;18.03;;;4.00;99.90;;;;;;4990721;28;20050;-71
2020/12/14 06:16:34;;;;;;;33.93;16.23;;;4.00;99.90;;;;;;4990938;28;20065;-69
2020/12/14 06:19:02;;;;;;;34.10;17.13;;;4.00;99.90;;;;;;4991239;28;20392;-68
2020/12/14 06:21:32;;;;;;;36.67;17.40;;;4.00;99.90;;;;;;4991683;28;20054;-68
2020/12/14 06:24:05;;;;;;;33.40;16.03;;;4.00;99.90;;;;;;4993176;28;20053;-69
2020/12/14 06:26:33;;;;;;;35.73;17.07;;;4.00;99.90;;;;;;4992120;28;20064;-68
2020/12/14 06:29:00;;;;;;;35.60;16.33;;;4.00;99.90;;;;;;4991077;28;20062;-68
2020/12/14 06:31:36;;;;;;;35.27;16.70;;;4.10;99.90;;;;;;4989977;28;20076;-69
2020/12/14 06:34:05;;;;;;;33.03;15.60;;;4.00;99.90;;;;;;4990353;28;20077;-68
2020/12/14 06:36:39;;;;;;;34.17;16.03;;;4.10;99.90;;;;;;4990976;28;20410;-68
2020/12/14 06:39:25;;;;;;;34.43;15.50;;;4.10;99.90;;;;;;4990447;28;20058;-69
2020/12/14 06:41:51;;;;;;;35.50;16.23;;;4.10;99.90;;;;;;4989551;28;20058;-69
2020/12/14 06:44:18;;;;;;;34.57;16.53;;;4.20;99.90;;;;;;4989966;28;20654;-69
2020/12/14 06:46:45;;;;;;;32.40;15.77;;;4.20;99.90;;;;;;4990787;28;20058;-69
2020/12/14 06:49:13;;;;;;;31.20;15.47;;;4.30;99.90;;;;;;4989961;28;20149;-69
2020/12/14 06:51:50;;;;;;;31.97;15.40;;;4.40;99.90;;;;;;4990107;28;20057;-68
2020/12/14 06:54:41;;;;;;;31.43;15.70;;;4.50;99.90;;;;;;4990526;28;20058;-70
2020/12/14 06:57:09;;;;;;;31.03;15.43;;;4.40;99.90;;;;;;4990375;28;20054;-68
2020/12/14 06:59:36;;;;;;;29.90;14.43;;;4.50;99.90;;;;;;4991013;28;20415;-68
2020/12/14 07:02:05;;;;;;;30.30;15.43;;;4.60;99.90;;;;;;4989659;28;20050;-69
2020/12/14 07:04:42;;;;;;;31.37;16.50;;;4.70;99.90;;;;;;4991093;28;20046;-69
2020/12/14 07:07:37;;;;;;;27.27;14.53;;;4.70;99.90;;;;;;4990015;28;20093;-70
2020/12/14 07:10:16;;;;;;;30.53;14.43;;;4.80;99.90;;;;;;4991646;28;20057;-69
2020/12/14 07:12:47;;;;;;;25.67;14.07;;;4.80;99.90;;;;;;4990388;28;20145;-69
2020/12/14 07:15:24;;;;;;;24.50;13.83;;;4.80;99.90;;;;;;4992640;28;20065;-68
2020/12/14 07:18:07;;;;;;;25.73;13.45;;;4.80;99.90;;;;;;4990898;28;20070;-69
2020/12/14 07:20:35;;;;;;;26.10;13.87;;;4.90;99.90;;;;;;4991040;28;20062;-69
2020/12/14 07:23:06;;;;;;;26.47;14.53;;;5.00;99.90;;;;;;4990782;28;20054;-68
2020/12/14 07:25:34;;;;;;;26.10;12.93;;;5.00;99.90;;;;;;4989788;28;20059;-69
2020/12/14 07:28:02;;;;;;;25.70;13.40;;;5.00;99.90;;;;;;4991022;28;20388;-69
2020/12/14 07:30:31;;;;;;;25.60;13.47;;;5.10;99.90;;;;;;4989613;28;20073;-68
2020/12/14 07:32:59;;;;;;;24.17;13.93;;;5.10;99.90;;;;;;4990724;28;20526;-68
2020/12/14 07:35:26;;;;;;;26.93;13.37;;;5.20;99.90;;;;;;4988899;28;20448;-69
2020/12/14 07:37:54;;;;;;;23.63;12.47;;;5.20;99.90;;;;;;4990569;28;20053;-70
2020/12/14 07:40:21;;;;;;;23.00;12.77;;;5.30;99.90;;;;;;4990292;28;20062;-69
2020/12/14 07:42:48;;;;;;;22.03;12.30;;;5.30;99.90;;;;;;4987947;28;20054;-70
2020/12/14 07:45:17;;;;;;;22.83;11.53;;;5.30;99.90;;;;;;4990740;28;20116;-70
2020/12/14 07:47:45;;;;;;;20.47;11.63;;;5.30;99.90;;;;;;4992985;28;20638;-70
2020/12/14 07:50:13;;;;;;;24.37;12.60;;;5.30;99.90;;;;;;4993523;28;20046;-69
2020/12/14 07:52:40;;;;;;;19.97;12.00;;;5.30;99.90;;;;;;4993214;28;20050;-70
2020/12/14 07:55:09;;;;;;;19.97;11.37;;;5.50;99.90;;;;;;4994304;28;20055;-68
2020/12/14 07:57:38;;;;;;;20.83;11.97;;;5.40;99.90;;;;;;4994639;28;20116;-69
2020/12/14 08:00:07;;;;;;;19.37;11.47;;;5.60;99.90;;;;;;4994343;28;20526;-68
2020/12/14 08:02:44;;;;;;;20.03;11.87;;;5.40;99.90;;;;;;4995221;28;20047;-69
2020/12/14 08:05:13;;;;;;;20.93;10.90;;;5.50;99.90;;;;;;4994207;28;20054;-69
2020/12/14 08:07:45;;;;;;;22.73;12.07;;;5.60;99.90;;;;;;4995305;28;20050;-68
2020/12/14 08:10:13;;;;;;;20.07;12.10;;;5.60;99.90;;;;;;4993634;28;20054;-68
2020/12/14 08:12:41;;;;;;;20.27;11.50;;;5.60;99.90;;;;;;4994713;28;20076;-69
2020/12/14 08:15:14;;;;;;;21.37;12.20;;;5.60;99.90;;;;;;4993636;28;20055;-69
2020/12/14 08:17:41;;;;;;;20.93;11.53;;;5.60;99.90;;;;;;4991872;28;20046;-68
2020/12/14 08:20:24;;;;;;;23.00;12.33;;;5.60;99.90;;;;;;4994202;28;20420;-68
2020/12/14 08:22:51;;;;;;;22.50;11.97;;;5.60;99.90;;;;;;4993957;28;20061;-68
2020/12/14 08:25:21;;;;;;;21.50;12.00;;;5.60;99.90;;;;;;4994558;28;20058;-68
2020/12/14 08:27:52;;;;;;;19.70;10.90;;;5.70;99.90;;;;;;4994221;28;20046;-69
2020/12/14 08:30:21;;;;;;;19.07;11.27;;;5.70;99.90;;;;;;4994218;28;20511;-68
2020/12/14 08:33:06;;;;;;;21.00;11.70;;;5.80;99.90;;;;;;4994461;28;20108;-69
2020/12/14 08:35:32;;;;;;;21.30;11.23;;;5.70;99.90;;;;;;4994403;28;20046;-68
2020/12/14 08:38:02;;;;;;;19.67;10.80;;;5.80;99.90;;;;;;4994740;28;20065;-69
2020/12/14 08:40:30;;;;;;;19.03;10.67;;;5.90;99.90;;;;;;4992849;28;20066;-70
2020/12/14 08:43:10;;;;;;;18.17;10.52;;;5.80;99.90;;;;;;4992406;28;20050;-69
2020/12/14 08:45:39;;;;;;;21.17;11.43;;;5.80;99.90;;;;;;4974091;28;20054;-68
2020/12/14 08:48:06;;;;;;;20.47;10.83;;;5.80;99.90;;;;;;4978860;28;20057;-69
2020/12/14 08:50:33;;;;;;;21.33;11.87;;;5.90;99.90;;;;;;4991345;28;20054;-74
2020/12/14 08:53:01;;;;;;;19.70;11.10;;;5.90;99.90;;;;;;4991122;28;20418;-71
2020/12/14 08:55:39;;;;;;;21.07;11.10;;;5.90;99.90;;;;;;4992314;28;20085;-69
2020/12/14 08:58:06;;;;;;;19.90;10.93;;;6.00;99.90;;;;;;4990938;28;20086;-70
2020/12/14 09:00:33;;;;;;;18.07;10.07;;;6.00;99.90;;;;;;4980785;28;20054;-70
2020/12/14 09:03:01;;;;;;;17.08;10.18;;;6.10;99.90;;;;;;4974270;28;20098;-72
2020/12/14 09:05:32;;;;;;;21.17;11.50;;;6.00;99.90;;;;;;4972705;28;20138;-72
2020/12/14 09:08:11;;;;;;;19.70;10.88;;;5.90;99.90;;;;;;4980048;28;20062;-69
2020/12/14 09:10:39;;;;;;;18.73;10.77;;;6.00;99.90;;;;;;4978342;28;20071;-68
2020/12/14 09:13:06;;;;;;;19.88;10.80;;;5.90;99.90;;;;;;4988695;28;20150;-69
2020/12/14 09:15:34;;;;;;;24.17;11.27;;;6.00;99.90;;;;;;5000333;28;20521;-70
2020/12/14 09:18:01;;;;;;;20.87;11.07;;;6.00;99.90;;;;;;4987867;28;20055;-70
2020/12/14 09:20:28;;;;;;;20.30;11.30;;;5.90;99.90;;;;;;4985479;28;20653;-69
2020/12/14 09:22:55;;;;;;;22.45;11.27;;;6.00;99.90;;;;;;4979341;28;20093;-69
2020/12/14 09:25:21;;;;;;;20.50;10.77;;;6.10;99.90;;;;;;4989656;28;20053;-67
2020/12/14 09:27:49;;;;;;;20.30;11.03;;;6.10;99.90;;;;;;4975258;28;20519;-66
2020/12/14 09:30:16;;;;;;;22.10;11.43;;;6.10;99.90;;;;;;4983022;28;20054;-69
2020/12/14 09:32:43;;;;;;;19.10;11.15;;;6.10;99.90;;;;;;4988379;28;20054;-68
2020/12/14 09:35:10;;;;;;;19.58;11.13;;;6.20;99.90;;;;;;4981791;28;20070;-68
2020/12/14 09:37:37;;;;;;;18.65;10.20;;;6.30;99.90;;;;;;4982242;28;20125;-68
2020/12/14 09:40:05;;;;;;;17.45;10.18;;;6.20;99.90;;;;;;4988287;28;20054;-67
2020/12/14 09:42:31;;;;;;;18.33;9.98;;;6.10;99.90;;;;;;4986961;28;20120;-68
2020/12/14 09:44:59;;;;;;;21.42;10.02;;;6.10;99.90;;;;;;4993315;28;20052;-67
2020/12/14 09:47:26;;;;;;;18.33;10.50;;;6.10;99.90;;;;;;4999276;28;20062;-67
2020/12/14 09:49:53;;;;;;;19.20;10.53;;;6.20;99.90;;;;;;5000739;28;20054;-68
2020/12/14 09:52:20;;;;;;;17.20;9.73;;;6.20;99.90;;;;;;4993084;28;20118;-69
2020/12/14 09:54:46;;;;;;;17.25;9.98;;;6.20;99.90;;;;;;4988894;28;20298;-67
2020/12/14 09:57:13;;;;;;;22.50;11.00;;;6.20;99.90;;;;;;4979809;28;20083;-68
2020/12/14 09:59:40;;;;;;;18.27;10.20;;;6.20;99.90;;;;;;4985727;28;20050;-69
2020/12/14 10:02:07;;;;;;;21.90;10.90;;;6.20;99.90;;;;;;4995421;28;20419;-69
2020/12/14 10:04:34;;;;;;;18.65;10.45;;;6.20;99.90;;;;;;4992939;28;20106;-69
2020/12/14 10:07:01;;;;;;;17.65;10.10;;;6.20;99.90;;;;;;4997956;28;20046;-69
2020/12/14 10:09:28;;;;;;;19.10;10.30;;;6.20;99.90;;;;;;5002575;28;20065;-69
2020/12/14 10:11:56;;;;;;;18.33;10.60;;;6.10;99.90;;;;;;5000691;28;20333;-68
2020/12/14 10:14:22;;;;;;;20.58;10.80;;;6.20;99.90;;;;;;4998819;28;20057;-69
2020/12/14 10:16:50;;;;;;;18.80;10.38;;;6.30;99.90;;;;;;5000459;28;20058;-69
2020/12/14 10:19:18;;;;;;;19.50;11.38;;;6.40;99.90;;;;;;5002674;28;20054;-69
2020/12/14 10:21:44;;;;;;;18.63;11.15;;;6.40;99.90;;;;;;4997020;28;20057;-68
2020/12/14 10:24:12;;;;;;;21.25;11.32;;;6.20;99.90;;;;;;4991675;28;20077;-69
2020/12/14 10:26:39;;;;;;;18.60;10.00;;;6.30;99.90;;;;;;4992972;28;20047;-69
2020/12/14 10:29:06;;;;;;;20.58;11.00;;;6.30;99.90;;;;;;5006199;28;20058;-69
2020/12/14 10:31:32;;;;;;;17.30;9.90;;;6.30;99.90;;;;;;4998594;28;20050;-69
2020/12/14 10:34:00;;;;;;;17.93;11.27;;;6.30;99.90;;;;;;4990587;28;20169;-69
2020/12/14 10:36:28;;;;;;;18.52;11.20;;;6.40;99.90;;;;;;4991105;28;20065;-68
2020/12/14 10:38:55;;;;;;;20.85;11.65;;;6.40;99.90;;;;;;4990304;28;20062;-68
2020/12/14 10:41:21;;;;;;;17.80;10.85;;;6.50;99.90;;;;;;4990596;28;20058;-69
2020/12/14 10:43:48;;;;;;;20.17;12.00;;;6.50;99.90;;;;;;4989754;28;20049;-69
2020/12/14 10:46:16;;;;;;;19.02;10.77;;;6.50;99.90;;;;;;4991127;28;20053;-70
2020/12/14 10:48:43;;;;;;;17.38;11.10;;;6.50;99.90;;;;;;4989779;28;20084;-68
2020/12/14 10:51:10;;;;;;;18.02;11.05;;;6.50;99.90;;;;;;4990071;28;20530;-69
2020/12/14 10:53:38;;;;;;;19.95;11.65;;;6.60;99.90;;;;;;4991236;28;20046;-70
2020/12/14 10:56:04;;;;;;;20.80;11.48;;;6.50;99.90;;;;;;4989378;28;20058;-70
2020/12/14 10:58:31;;;;;;;17.33;10.90;;;6.40;99.90;;;;;;4990985;28;20582;-70
2020/12/14 11:00:58;;;;;;;19.38;11.93;;;6.50;99.90;;;;;;4989594;28;20415;-73
2020/12/14 11:03:25;;;;;;;18.00;11.07;;;6.50;99.90;;;;;;4990739;28;20053;-70
2020/12/14 11:05:53;;;;;;;20.45;12.70;;;6.50;99.90;;;;;;4990192;28;20058;-72
2020/12/14 11:08:20;;;;;;;19.38;11.57;;;6.50;99.90;;;;;;4979419;28;20081;-70
2020/12/14 11:10:47;;;;;;;17.02;10.77;;;6.50;99.90;;;;;;4970261;28;20053;-72
2020/12/14 11:13:14;;;;;;;20.58;12.18;;;6.50;99.90;;;;;;4971869;28;20079;-70
2020/12/14 11:15:41;;;;;;;21.70;11.68;;;6.50;99.90;;;;;;4976038;28;20054;-70
2020/12/14 11:18:07;;;;;;;18.33;11.45;;;6.60;99.90;;;;;;4991226;28;20054;-70
2020/12/14 11:20:34;;;;;;;19.77;11.60;;;6.60;99.90;;;;;;4991596;28;20287;-70
2020/12/14 11:23:02;;;;;;;20.40;12.88;;;6.40;99.90;;;;;;4994203;28;20495;-71
2020/12/14 11:25:29;;;;;;;19.58;11.63;;;6.40;99.90;;;;;;4994232;28;20463;-73
2020/12/14 11:27:57;;;;;;;18.35;10.68;;;6.40;99.90;;;;;;4994404;28;20093;-70
2020/12/14 11:30:23;;;;;;;20.08;11.65;;;6.50;99.90;;;;;;4991772;28;20054;-70
2020/12/14 11:32:50;;;;;;;19.67;11.65;;;6.40;99.90;;;;;;4994849;28;20060;-70
2020/12/14 11:35:17;;;;;;;18.38;11.25;;;6.40;99.90;;;;;;4993251;28;20065;-70
2020/12/14 11:37:44;;;;;;;19.25;10.95;;;6.40;99.90;;;;;;4994438;28;20092;-70
2020/12/14 11:40:12;;;;;;;18.15;11.63;;;6.40;99.90;;;;;;4993827;28;20054;-73
2020/12/14 11:42:39;;;;;;;19.23;12.00;;;6.40;99.90;;;;;;4990948;28;20129;-71
2020/12/14 11:45:09;;;;;;;18.15;10.68;;;6.50;99.90;;;;;;4993722;28;20132;-70
2020/12/14 11:47:36;;;;;;;17.30;10.50;;;6.40;99.90;;;;;;4982446;28;20062;-70
2020/12/14 11:50:04;;;;;;;18.58;10.57;;;6.40;99.90;;;;;;4983518;28;20058;-71
2020/12/14 11:52:32;;;;;;;18.85;10.15;;;6.40;99.90;;;;;;4982124;28;20053;-73
2020/12/14 11:54:59;;;;;;;16.33;10.18;;;6.40;99.90;;;;;;4981912;28;20503;-70
2020/12/14 11:57:26;;;;;;;19.58;10.98;;;6.40;99.90;;;;;;4982796;28;20100;-72
2020/12/14 11:59:53;;;;;;;16.83;10.30;;;6.50;99.90;;;;;;4982463;28;20054;-70
2020/12/14 12:02:20;;;;;;;15.57;9.05;;;6.40;99.90;;;;;;4982154;28;20054;-73
2020/12/14 12:04:48;;;;;;;16.08;9.73;;;6.50;99.90;;;;;;4977167;28;20061;-69
2020/12/14 12:07:15;;;;;;;17.25;9.75;;;6.40;99.90;;;;;;4978646;28;20073;-69
2020/12/14 12:09:42;;;;;;;15.93;9.90;;;6.50;99.90;;;;;;4979089;28;20065;-71
2020/12/14 12:12:09;;;;;;;15.88;9.68;;;6.40;99.90;;;;;;4978577;28;20061;-71
2020/12/14 12:14:35;;;;;;;15.65;9.50;;;6.40;99.90;;;;;;4981100;28;20050;-71
2020/12/14 12:17:02;;;;;;;16.60;9.88;;;6.40;99.90;;;;;;4982649;28;20058;-74
2020/12/14 12:19:30;;;;;;;15.30;8.80;;;6.60;99.90;;;;;;4982648;28;20109;-69
2020/12/14 12:21:59;;;;;;;14.65;8.98;;;6.50;99.90;;;;;;4981648;28;20427;-69
2020/12/14 12:24:25;;;;;;;16.70;9.80;;;6.50;99.90;;;;;;4984713;28;20062;-71
2020/12/14 12:26:52;;;;;;;17.13;10.37;;;6.50;99.90;;;;;;4983087;28;20896;-73
2020/12/14 12:29:19;;;;;;;15.60;9.48;;;6.60;99.90;;;;;;4985020;28;20086;-70
2020/12/14 12:31:51;;;;;;;15.43;9.85;;;6.70;99.90;;;;;;4984209;28;20466;-74
2020/12/14 12:34:18;;;;;;;15.43;9.77;;;6.70;99.90;;;;;;4980358;28;20089;-73
2020/12/14 12:36:50;;;;;;;16.33;10.10;;;6.70;99.90;;;;;;4980948;28;20061;-71
2020/12/14 12:39:17;;;;;;;17.25;9.20;;;6.70;99.90;;;;;;4979664;28;20451;-71
2020/12/14 12:41:48;;;;;;;16.20;9.93;;;6.70;99.90;;;;;;4979920;28;20069;-70
2020/12/14 12:44:15;;;;;;;15.27;9.35;;;6.70;99.90;;;;;;4981629;28;20050;-74